Time;durP1;ratioP1;P1;durP2;ratioP2;P2;SDS_P1;SDS_P2;PMS_P1;PMS_P2;Temp;Humidity;BMP_temperature;BMP_pressure;BME280_temperature;BME280_humidity;BME280_pressure;Samples;Min_cycle;Max_cycle;Signal;HPM_P1;HPM_P2
2022/03/15 00:01:32;;;;;;;0.30;0.17;;;;;;;4.66;100.00;101500.59;5009800;28;20440;-46
2022/03/15 00:03:59;;;;;;;0.23;0.20;;;;;;;4.76;100.00;101510.41;5008032;28;20478;-47
2022/03/15 00:06:26;;;;;;;0.20;0.10;;;;;;;4.71;100.00;101505.09;5015217;28;20448;-46
2022/03/15 00:08:53;;;;;;;0.30;0.20;;;;;;;4.80;100.00;101499.09;5014959;28;20506;-47
2022/03/15 00:11:20;;;;;;;0.20;0.13;;;;;;;4.68;100.00;101498.91;5013920;28;20488;-46
2022/03/15 00:13:47;;;;;;;0.30;0.20;;;;;;;4.64;100.00;101504.97;5014801;28;21059;-46
2022/03/15 00:16:14;;;;;;;0.20;0.20;;;;;;;4.85;100.00;101497.38;5015081;28;20451;-47
2022/03/15 00:18:41;;;;;;;0.30;0.20;;;;;;;4.85;100.00;101496.50;5014772;28;20456;-46
2022/03/15 00:21:10;;;;;;;0.30;0.17;;;;;;;4.37;100.00;101503.66;5014762;28;20452;-46
2022/03/15 00:23:38;;;;;;;0.20;0.10;;;;;;;4.70;100.00;101500.69;5014853;28;20472;-46
2022/03/15 00:26:05;;;;;;;0.20;0.10;;;;;;;4.66;100.00;101505.84;5014736;28;20958;-48
2022/03/15 00:28:32;;;;;;;0.20;0.20;;;;;;;4.70;100.00;101505.06;5014721;28;20456;-46
2022/03/15 00:30:59;;;;;;;0.20;0.10;;;;;;;4.87;100.00;101498.28;5014676;28;20484;-46
2022/03/15 00:33:26;;;;;;;0.20;0.20;;;;;;;4.93;100.00;101502.75;5014142;28;20483;-46
2022/03/15 00:35:54;;;;;;;0.30;0.20;;;;;;;4.96;100.00;101500.19;5014725;28;20452;-46
2022/03/15 00:38:21;;;;;;;0.20;0.10;;;;;;;4.84;100.00;101494.72;5014489;28;21020;-46
2022/03/15 00:40:48;;;;;;;0.20;0.17;;;;;;;4.70;100.00;101497.16;5014582;28;20937;-46
2022/03/15 00:43:15;;;;;;;0.30;0.20;;;;;;;4.35;100.00;101493.97;5014413;28;20456;-48
2022/03/15 00:45:42;;;;;;;0.20;0.20;;;;;;;4.75;100.00;101491.09;5014167;28;20456;-48
2022/03/15 00:48:09;;;;;;;0.20;0.10;;;;;;;4.68;100.00;101497.16;5014191;28;21032;-47
2022/03/15 00:50:37;;;;;;;0.53;0.53;;;;;;;4.56;100.00;101491.69;5014267;28;20449;-48
2022/03/15 00:53:04;;;;;;;0.20;0.20;;;;;;;4.65;100.00;101490.94;5013964;28;20952;-48
2022/03/15 00:55:31;;;;;;;0.30;0.20;;;;;;;4.64;100.00;101490.03;5014299;28;20514;-48
2022/03/15 00:57:58;;;;;;;0.23;0.13;;;;;;;4.80;100.00;101485.91;5013829;28;21020;-48
2022/03/15 01:00:27;;;;;;;0.20;0.20;;;;;;;4.96;100.00;101477.34;5014090;28;20519;-48
2022/03/15 01:02:54;;;;;;;0.20;0.20;;;;;;;4.87;100.00;101471.94;5022259;28;20508;-48
2022/03/15 01:05:21;;;;;;;0.93;0.93;;;;;;;4.89;100.00;101469.31;5006224;28;20469;-48
2022/03/15 01:07:47;;;;;;;0.20;0.17;;;;;;;4.85;100.00;101472.78;5014397;28;20480;-48
2022/03/15 01:10:14;;;;;;;0.20;0.20;;;;;;;4.79;100.00;101477.97;5028130;23;20507;-49
2022/03/15 01:12:41;;;;;;;0.20;0.20;;;;;;;4.67;100.00;101482.22;5014005;28;20492;-48
2022/03/15 01:15:08;;;;;;;0.30;0.20;;;;;;;4.51;100.00;101474.03;5014443;28;20507;-47
2022/03/15 01:17:35;;;;;;;0.30;0.10;;;;;;;4.32;100.00;101465.88;5008114;28;20476;-48
2022/03/15 01:20:04;;;;;;;0.30;0.30;;;;;;;3.94;100.00;101464.34;5008248;28;20497;-50
2022/03/15 01:22:31;;;;;;;0.20;0.10;;;;;;;4.18;100.00;101461.25;5001797;28;20449;-50
2022/03/15 01:24:58;;;;;;;0.20;0.10;;;;;;;4.35;100.00;101467.66;5014053;28;20448;-47
2022/03/15 01:27:24;;;;;;;0.30;0.20;;;;;;;4.43;100.00;101466.94;5014153;28;20480;-47
2022/03/15 01:29:51;;;;;;;0.20;0.10;;;;;;;4.55;100.00;101473.25;5014049;28;20531;-47
2022/03/15 01:32:19;;;;;;;0.20;0.20;;;;;;;4.64;100.00;101478.63;5013913;28;21047;-48
2022/03/15 01:34:46;;;;;;;0.53;0.53;;;;;;;4.59;100.00;101478.56;5013869;28;20449;-48
2022/03/15 01:37:12;;;;;;;0.20;0.10;;;;;;;4.50;100.00;101467.88;5013769;28;20849;-47
2022/03/15 01:39:39;;;;;;;0.20;0.10;;;;;;;4.44;100.00;101463.44;5013606;28;20500;-47
2022/03/15 01:42:06;;;;;;;0.20;0.10;;;;;;;4.51;100.00;101463.50;5014115;28;20484;-48
2022/03/15 01:44:33;;;;;;;0.20;0.10;;;;;;;4.46;100.00;101464.34;5013235;28;20448;-48
2022/03/15 01:47:01;;;;;;;0.20;0.10;;;;;;;4.45;100.00;101452.03;5013822;28;20453;-48
2022/03/15 01:49:28;;;;;;;0.20;0.20;;;;;;;4.56;100.00;101451.31;5013443;28;20827;-47
2022/03/15 01:51:55;;;;;;;0.20;0.20;;;;;;;4.42;100.00;101462.53;5013602;28;20496;-47
2022/03/15 01:54:22;;;;;;;0.27;0.20;;;;;;;4.60;100.00;101458.38;5013931;28;20452;-48
2022/03/15 01:56:49;;;;;;;0.20;0.10;;;;;;;4.63;100.00;101454.03;5013666;28;20456;-47
2022/03/15 01:59:17;;;;;;;0.20;0.20;;;;;;;4.40;100.00;101458.09;5013391;28;20520;-47
2022/03/15 02:01:44;;;;;;;0.20;0.10;;;;;;;4.35;100.00;101446.59;5022299;28;20444;-47
2022/03/15 02:04:11;;;;;;;0.20;0.10;;;;;;;4.44;100.00;101441.47;5004851;28;20449;-48
2022/03/15 02:06:41;;;;;;;0.30;0.20;;;;;;;4.10;100.00;101433.06;5013837;28;20819;-47
2022/03/15 02:09:13;;;;;;;0.20;0.20;;;;;;;4.36;100.00;101422.94;5019550;28;20475;-48
2022/03/15 02:11:44;;;;;;;0.20;0.20;;;;;;;4.31;100.00;101431.63;5013992;28;20488;-48
2022/03/15 02:14:11;;;;;;;0.20;0.20;;;;;;;4.43;100.00;101423.94;5013737;28;20491;-48
2022/03/15 02:16:38;;;;;;;0.20;0.20;;;;;;;4.62;100.00;101430.31;5013632;28;21038;-47
2022/03/15 02:19:05;;;;;;;0.20;0.10;;;;;;;4.66;100.00;101421.59;5013090;28;20477;-47
2022/03/15 02:21:31;;;;;;;0.20;0.10;;;;;;;4.68;100.00;101426.03;5013117;28;20445;-48
2022/03/15 02:23:58;;;;;;;0.20;0.10;;;;;;;4.64;100.00;101431.22;5012959;28;20448;-48
2022/03/15 02:26:25;;;;;;;4.03;2.03;;;;;;;4.60;100.00;101426.78;5013219;28;20445;-47
2022/03/15 02:28:51;;;;;;;0.20;0.20;;;;;;;4.57;100.00;101430.28;5013408;28;20500;-48
2022/03/15 02:31:19;;;;;;;0.30;0.20;;;;;;;4.53;100.00;101423.22;5013334;28;20479;-47
2022/03/15 02:33:50;;;;;;;0.93;0.93;;;;;;;4.61;100.00;101416.28;5013336;28;20508;-48
2022/03/15 02:36:17;;;;;;;0.20;0.20;;;;;;;4.47;100.00;101425.72;5013243;28;20484;-47
2022/03/15 02:38:45;;;;;;;0.20;0.10;;;;;;;4.52;100.00;101420.53;5013069;28;20510;-47
2022/03/15 02:41:12;;;;;;;0.20;0.10;;;;;;;4.53;100.00;101430.22;5013470;28;20507;-47
2022/03/15 02:43:40;;;;;;;0.20;0.10;;;;;;;4.65;100.00;101418.06;5013168;28;20455;-47
2022/03/15 02:46:07;;;;;;;0.30;0.10;;;;;;;4.57;100.00;101425.00;5013195;28;20452;-47
2022/03/15 02:48:35;;;;;;;0.20;0.20;;;;;;;4.50;100.00;101417.88;5012714;28;21025;-47
2022/03/15 02:51:09;;;;;;;0.20;0.10;;;;;;;4.56;100.00;101412.72;5013376;28;20461;-49
2022/03/15 02:53:37;;;;;;;0.30;0.20;;;;;;;4.61;100.00;101410.13;5013408;28;20503;-47
2022/03/15 02:56:10;;;;;;;0.20;0.10;;;;;;;4.54;100.00;101400.41;5017103;28;20873;-47
2022/03/15 02:58:41;;;;;;;0.20;0.10;;;;;;;4.47;100.00;101409.94;5018099;28;20502;-47
2022/03/15 03:01:08;;;;;;;0.20;0.10;;;;;;;4.56;100.00;101410.06;5022614;28;20481;-47
2022/03/15 03:03:37;;;;;;;0.20;0.10;;;;;;;4.49;100.00;101409.94;5019459;28;20449;-48
2022/03/15 03:06:06;;;;;;;0.20;0.20;;;;;;;4.57;100.00;101409.22;5017214;28;20470;-48
2022/03/15 03:08:34;;;;;;;0.20;0.20;;;;;;;4.34;100.00;101406.25;5020698;28;20455;-48
2022/03/15 03:11:02;;;;;;;0.20;0.10;;;;;;;4.50;100.00;101403.81;5018386;28;20452;-47
2022/03/15 03:13:30;;;;;;;2.20;2.10;;;;;;;4.46;100.00;101410.81;5016969;28;20496;-47
2022/03/15 03:15:59;;;;;;;0.30;0.20;;;;;;;4.46;100.00;101402.91;5016677;28;20945;-48
2022/03/15 03:18:32;;;;;;;0.30;0.20;;;;;;;4.50;100.00;101404.72;5016510;28;20476;-47
2022/03/15 03:21:04;;;;;;;0.20;0.20;;;;;;;4.33;100.00;101400.97;5016793;28;20448;-47
2022/03/15 03:23:32;;;;;;;0.20;0.17;;;;;;;4.50;100.00;101388.91;5016941;28;20448;-47
2022/03/15 03:25:59;;;;;;;0.20;0.10;;;;;;;4.55;100.00;101396.91;5016909;28;20456;-47
2022/03/15 03:28:36;;;;;;;0.20;0.20;;;;;;;4.35;100.00;101394.84;5016470;28;20456;-48
2022/03/15 03:31:05;;;;;;;0.30;0.20;;;;;;;4.48;100.00;101395.91;5016690;28;20455;-47
2022/03/15 03:33:32;;;;;;;0.20;0.10;;;;;;;4.41;100.00;101394.06;5016331;28;20519;-48
2022/03/15 03:35:59;;;;;;;0.20;0.10;;;;;;;4.44;100.00;101389.72;5016352;28;21068;-47
2022/03/15 03:38:27;;;;;;;0.30;0.20;;;;;;;4.40;100.00;101380.03;5016023;28;20448;-47
2022/03/15 03:40:54;;;;;;;0.20;0.10;;;;;;;4.55;100.00;101374.09;5015725;28;20456;-47
2022/03/15 03:43:21;;;;;;;0.30;0.20;;;;;;;4.34;100.00;101376.41;5016365;28;20448;-48
2022/03/15 03:45:48;;;;;;;0.30;0.20;;;;;;;4.50;100.00;101380.13;5016317;28;20452;-48
2022/03/15 03:48:14;;;;;;;0.20;0.20;;;;;;;4.50;100.00;101388.03;5014953;28;20460;-47
2022/03/15 03:50:42;;;;;;;0.30;0.20;;;;;;;4.56;100.00;101385.50;5016040;28;20523;-49
2022/03/15 03:53:10;;;;;;;0.20;0.10;;;;;;;4.59;100.00;101378.50;5015431;28;20534;-49
2022/03/15 03:55:37;;;;;;;1.40;0.57;;;;;;;4.54;100.00;101395.13;5016052;28;20457;-49
2022/03/15 03:58:03;;;;;;;0.30;0.20;;;;;;;4.68;100.00;101397.09;5016159;28;20476;-49
2022/03/15 04:00:30;;;;;;;0.20;0.20;;;;;;;4.64;100.00;101397.00;5015966;28;20506;-48
2022/03/15 04:03:00;;;;;;;0.20;0.10;;;;;;;4.73;100.00;101387.47;5023355;28;20803;-49
2022/03/15 04:05:30;;;;;;;0.20;0.20;;;;;;;4.52;100.00;101388.94;5008466;28;20451;-48
2022/03/15 04:07:59;;;;;;;0.37;0.37;;;;;;;4.35;100.00;101378.16;5001954;28;20455;-49
2022/03/15 04:10:32;;;;;;;0.23;0.10;;;;;;;4.53;100.00;101383.72;5020949;28;20479;-48
2022/03/15 04:12:58;;;;;;;0.20;0.10;;;;;;;4.61;100.00;101382.03;5015622;28;20492;-48
2022/03/15 04:15:25;;;;;;;0.30;0.30;;;;;;;4.45;100.00;101373.06;5015853;28;20453;-49
2022/03/15 04:17:52;;;;;;;0.20;0.20;;;;;;;4.58;100.00;101368.84;5016709;28;20452;-48
2022/03/15 04:20:18;;;;;;;0.20;0.10;;;;;;;4.56;100.00;101370.59;5016205;28;20495;-49
2022/03/15 04:22:45;;;;;;;0.20;0.20;;;;;;;4.68;100.00;101367.22;5016907;28;20499;-49
2022/03/15 04:25:12;;;;;;;0.20;0.10;;;;;;;4.62;100.00;101375.03;5016556;28;20906;-49
2022/03/15 04:27:39;;;;;;;2.70;2.60;;;;;;;4.66;100.00;101366.28;5017067;28;20455;-48
2022/03/15 04:30:06;;;;;;;0.20;0.10;;;;;;;4.38;100.00;101362.41;5016608;28;20476;-49
2022/03/15 04:32:35;;;;;;;0.20;0.10;;;;;;;4.59;100.00;101375.00;5018168;28;20489;-48
2022/03/15 04:35:02;;;;;;;0.20;0.13;;;;;;;4.62;100.00;101370.66;5015830;28;20452;-49
2022/03/15 04:37:29;;;;;;;0.20;0.20;;;;;;;4.62;100.00;101364.50;5015734;28;20449;-48
2022/03/15 04:39:56;;;;;;;0.20;0.10;;;;;;;4.66;100.00;101364.59;5015321;28;20488;-49
2022/03/15 04:42:23;;;;;;;0.30;0.10;;;;;;;4.67;100.00;101365.47;5015168;28;20866;-48
2022/03/15 04:44:50;;;;;;;0.20;0.20;;;;;;;4.63;100.00;101367.16;5014688;28;20461;-49
2022/03/15 04:47:17;;;;;;;0.20;0.20;;;;;;;4.56;100.00;101365.31;5014495;28;20460;-49
2022/03/15 04:49:43;;;;;;;0.20;0.10;;;;;;;4.73;100.00;101360.25;5014231;28;20501;-49
2022/03/15 04:52:10;;;;;;;0.20;0.10;;;;;;;4.72;100.00;101358.50;5014719;28;20488;-49
2022/03/15 04:54:37;;;;;;;0.50;0.50;;;;;;;4.51;100.00;101358.19;5014882;28;20827;-48
2022/03/15 04:57:03;;;;;;;0.20;0.20;;;;;;;4.58;100.00;101347.78;5014904;28;20480;-48
2022/03/15 04:59:30;;;;;;;0.20;0.20;;;;;;;4.50;100.00;101346.78;5014538;28;20503;-49
2022/03/15 05:01:57;;;;;;;0.43;0.43;;;;;;;4.58;100.00;101350.41;5023955;28;20443;-48
2022/03/15 05:04:24;;;;;;;0.20;0.20;;;;;;;4.57;100.00;101334.59;5001071;28;20796;-48
2022/03/15 05:06:51;;;;;;;0.50;0.50;;;;;;;4.49;100.00;101338.88;5005671;28;20455;-48
2022/03/15 05:09:17;;;;;;;0.20;0.10;;;;;;;4.47;100.00;101336.22;5016165;28;20531;-49
2022/03/15 05:11:46;;;;;;;0.20;0.10;;;;;;;4.57;100.00;101337.25;5005316;28;20444;-49
2022/03/15 05:14:13;;;;;;;0.47;0.30;;;;;;;4.56;100.00;101333.72;5014133;28;20453;-48
2022/03/15 05:16:40;;;;;;;0.20;0.10;;;;;;;4.56;100.00;101335.47;5014425;28;20875;-48
2022/03/15 05:19:06;;;;;;;0.20;0.10;;;;;;;4.56;100.00;101325.81;5014040;28;20527;-48
2022/03/15 05:21:33;;;;;;;0.20;0.10;;;;;;;4.61;100.00;101333.78;5014101;28;20453;-49
2022/03/15 05:24:00;;;;;;;1.17;0.73;;;;;;;4.56;100.00;101325.81;5012743;28;20457;-48
2022/03/15 05:26:26;;;;;;;0.20;0.20;;;;;;;4.57;100.00;101332.84;5014071;28;20506;-49
2022/03/15 05:28:53;;;;;;;0.20;0.10;;;;;;;4.54;100.00;101324.03;5013628;28;20472;-49
2022/03/15 05:31:21;;;;;;;0.20;0.10;;;;;;;4.51;100.00;101331.88;5013934;28;20499;-49
2022/03/15 05:33:48;;;;;;;0.30;0.20;;;;;;;4.52;100.00;101331.91;5013798;28;20492;-49
2022/03/15 05:36:15;;;;;;;0.20;0.10;;;;;;;4.57;100.00;101334.59;5014055;28;20457;-49
2022/03/15 05:38:42;;;;;;;0.20;0.10;;;;;;;4.44;100.00;101329.19;5013710;28;20879;-48
2022/03/15 05:41:09;;;;;;;0.20;0.20;;;;;;;4.53;100.00;101333.69;5013973;28;20475;-49
2022/03/15 05:43:52;;;;;;;0.60;0.60;;;;;;;4.49;100.00;101323.09;5002848;28;20489;-49
2022/03/15 05:46:18;;;;;;;0.20;0.20;;;;;;;4.48;100.00;101324.84;5014006;28;20456;-49
2022/03/15 05:48:45;;;;;;;0.20;0.10;;;;;;;4.54;100.00;101326.69;5014222;28;20491;-49
2022/03/15 05:51:13;;;;;;;0.20;0.10;;;;;;;4.51;100.00;101326.63;5013739;28;20452;-49
2022/03/15 05:53:40;;;;;;;0.20;0.20;;;;;;;4.44;100.00;101321.28;5013632;28;20484;-49
2022/03/15 05:56:06;;;;;;;0.20;0.10;;;;;;;4.44;100.00;101318.66;5013695;28;20957;-49
2022/03/15 05:58:33;;;;;;;0.20;0.10;;;;;;;4.46;100.00;101311.66;5013956;28;20855;-48
2022/03/15 06:01:00;;;;;;;0.20;0.10;;;;;;;4.45;100.00;101316.91;5016088;28;20519;-49
2022/03/15 06:03:26;;;;;;;1.03;1.03;;;;;;;4.42;100.00;101309.84;5015407;28;20445;-49
2022/03/15 06:05:53;;;;;;;0.20;0.10;;;;;;;4.45;100.00;101314.28;5009705;28;20503;-49
2022/03/15 06:08:20;;;;;;;0.43;0.43;;;;;;;4.35;100.00;101315.88;5015660;28;20452;-49
2022/03/15 06:10:47;;;;;;;0.20;0.10;;;;;;;4.47;100.00;101315.16;5016624;28;20485;-49
2022/03/15 06:13:13;;;;;;;0.20;0.20;;;;;;;4.57;100.00;101318.81;5013535;28;20484;-49
2022/03/15 06:15:40;;;;;;;0.30;0.20;;;;;;;4.59;100.00;101307.44;5013467;28;20461;-49
2022/03/15 06:18:07;;;;;;;1.23;1.13;;;;;;;4.65;100.00;101309.22;5013345;28;20874;-49
2022/03/15 06:20:35;;;;;;;0.67;0.67;;;;;;;4.68;100.00;101302.28;5013262;28;20497;-49
2022/03/15 06:23:03;;;;;;;0.20;0.20;;;;;;;4.66;100.00;101300.47;5013524;28;20449;-49
2022/03/15 06:25:30;;;;;;;0.20;0.20;;;;;;;4.70;100.00;101303.19;5013210;28;20452;-49
2022/03/15 06:27:57;;;;;;;0.20;0.10;;;;;;;4.66;100.00;101301.38;5013378;28;20910;-49
2022/03/15 06:30:24;;;;;;;1.87;1.73;;;;;;;4.85;100.00;101301.59;5012874;28;20468;-49
2022/03/15 06:32:51;;;;;;;0.20;0.20;;;;;;;4.81;100.00;101305.06;5013351;28;20520;-49
2022/03/15 06:35:19;;;;;;;0.20;0.10;;;;;;;5.01;100.00;101309.66;5012911;28;20481;-49
2022/03/15 06:37:48;;;;;;;0.20;0.20;;;;;;;5.00;100.00;101310.53;5012472;28;20464;-49
2022/03/15 06:40:21;;;;;;;0.20;0.20;;;;;;;4.97;100.00;101312.25;5013062;28;20469;-49
2022/03/15 06:42:48;;;;;;;0.20;0.10;;;;;;;4.98;100.00;101308.75;5012911;28;20445;-48
2022/03/15 06:45:15;;;;;;;0.20;0.10;;;;;;;4.95;100.00;101308.72;5013118;28;20453;-49
2022/03/15 06:47:42;;;;;;;0.20;0.10;;;;;;;4.89;100.00;101309.53;5013046;28;20972;-49
2022/03/15 06:50:09;;;;;;;0.20;0.20;;;;;;;4.94;100.00;101304.31;5013102;28;20472;-49
2022/03/15 06:52:37;;;;;;;0.20;0.10;;;;;;;4.86;100.00;101305.97;5013281;28;20490;-49
2022/03/15 06:55:04;;;;;;;0.30;0.20;;;;;;;4.97;100.00;101301.72;5014003;28;20448;-49
2022/03/15 06:57:32;;;;;;;0.20;0.17;;;;;;;4.81;100.00;101294.53;5013569;28;20507;-49
2022/03/15 06:59:59;;;;;;;0.20;0.10;;;;;;;4.98;100.00;101303.47;5013328;28;20468;-49
2022/03/15 07:02:27;;;;;;;0.47;0.47;;;;;;;5.25;100.00;101295.84;5024663;28;20447;-49
2022/03/15 07:04:54;;;;;;;0.37;0.37;;;;;;;5.16;100.00;101301.03;5000612;28;20448;-49
2022/03/15 07:07:21;;;;;;;0.30;0.20;;;;;;;5.09;100.00;101295.69;5013119;28;20452;-49
2022/03/15 07:09:47;;;;;;;0.20;0.10;;;;;;;5.14;100.00;101297.50;5032375;23;20489;-48
2022/03/15 07:12:14;;;;;;;0.20;0.20;;;;;;;5.19;100.00;101306.31;4999145;28;20832;-48
2022/03/15 07:14:41;;;;;;;0.27;0.17;;;;;;;5.18;100.00;101304.56;5012254;28;20523;-48
2022/03/15 07:17:08;;;;;;;0.20;0.10;;;;;;;5.14;100.00;101294.84;5010542;28;20456;-48
2022/03/15 07:19:35;;;;;;;0.23;0.10;;;;;;;5.25;100.00;101287.06;5000806;28;20542;-48
2022/03/15 07:22:02;;;;;;;0.20;0.10;;;;;;;5.41;100.00;101283.69;5012004;28;20514;-48
2022/03/15 07:24:28;;;;;;;0.20;0.20;;;;;;;5.21;100.00;101280.00;5012409;28;20444;-48
2022/03/15 07:26:55;;;;;;;0.30;0.20;;;;;;;5.35;100.00;101273.09;5012078;28;20480;-48
2022/03/15 07:29:21;;;;;;;0.20;0.20;;;;;;;5.41;100.00;101280.16;5012207;28;20530;-48
2022/03/15 07:31:48;;;;;;;0.30;0.20;;;;;;;5.52;100.00;101270.59;5012006;28;20926;-48
2022/03/15 07:34:15;;;;;;;0.20;0.10;;;;;;;5.51;100.00;101275.00;5011938;28;20488;-48
2022/03/15 07:36:42;;;;;;;0.30;0.20;;;;;;;5.37;100.00;101246.75;5011891;28;20514;-49
2022/03/15 07:39:09;;;;;;;0.30;0.20;;;;;;;5.56;100.00;101246.00;5012057;28;20507;-48
2022/03/15 07:41:38;;;;;;;0.20;0.10;;;;;;;5.56;100.00;101256.56;5012564;28;20863;-48
2022/03/15 07:44:10;;;;;;;1.10;1.10;;;;;;;5.65;100.00;101251.34;5014486;28;20881;-48
2022/03/15 07:46:37;;;;;;;0.20;0.10;;;;;;;6.12;100.00;101246.38;5013899;28;20445;-48
2022/03/15 07:49:04;;;;;;;0.20;0.10;;;;;;;5.89;100.00;101245.34;5007081;28;20490;-48
2022/03/15 07:51:31;;;;;;;0.20;0.20;;;;;;;5.80;100.00;101237.38;5015144;28;20475;-48
2022/03/15 07:53:58;;;;;;;0.20;0.10;;;;;;;6.04;100.00;101239.31;5015337;28;20519;-48
2022/03/15 07:56:25;;;;;;;0.20;0.20;;;;;;;6.02;100.00;101241.91;5015697;28;20503;-48
2022/03/15 07:58:51;;;;;;;0.20;0.20;;;;;;;6.19;100.00;101237.63;5015130;28;20937;-48
2022/03/15 08:01:19;;;;;;;0.30;0.20;;;;;;;6.19;100.00;101239.41;5009837;28;20445;-48
2022/03/15 08:03:45;;;;;;;0.20;0.10;;;;;;;6.29;100.00;101225.34;5007338;28;20457;-47
2022/03/15 08:06:12;;;;;;;0.33;0.33;;;;;;;6.32;100.00;101230.66;5015146;28;20453;-48
2022/03/15 08:08:39;;;;;;;0.20;0.10;;;;;;;6.38;100.00;101230.66;5010925;28;20480;-48
2022/03/15 08:11:07;;;;;;;0.20;0.10;;;;;;;6.23;100.00;101234.13;5013940;28;20514;-48
2022/03/15 08:13:35;;;;;;;0.30;0.20;;;;;;;6.33;100.00;101236.81;5014984;28;20559;-48
2022/03/15 08:16:03;;;;;;;1.63;1.53;;;;;;;6.33;100.00;101236.81;5015005;28;20523;-48
2022/03/15 08:18:30;;;;;;;0.20;0.20;;;;;;;6.65;100.00;101214.00;5011447;28;20452;-48
2022/03/15 08:20:58;;;;;;;0.30;0.17;;;;;;;6.52;100.00;101218.38;5014960;28;20534;-47
2022/03/15 08:23:28;;;;;;;0.30;0.20;;;;;;;6.61;100.00;101220.19;5014868;28;20449;-48
2022/03/15 08:25:56;;;;;;;0.30;0.20;;;;;;;6.69;100.00;101213.13;5014790;28;20511;-47
2022/03/15 08:28:24;;;;;;;0.30;0.20;;;;;;;6.65;100.00;101215.78;5014537;28;20514;-48
2022/03/15 08:30:54;;;;;;;0.30;0.20;;;;;;;6.80;100.00;101221.97;5015047;28;20522;-47
2022/03/15 08:33:21;;;;;;;0.30;0.20;;;;;;;6.81;100.00;101231.66;5014637;28;20809;-48
2022/03/15 08:35:49;;;;;;;0.30;0.30;;;;;;;6.88;100.00;101222.00;5014968;28;20449;-48
2022/03/15 08:38:16;;;;;;;2.23;0.67;;;;;;;7.03;100.00;101226.41;5014614;28;20452;-48
2022/03/15 08:40:43;;;;;;;0.30;0.20;;;;;;;6.92;100.00;101222.88;5014448;28;20496;-47
2022/03/15 08:43:10;;;;;;;0.30;0.20;;;;;;;6.93;100.00;101209.66;5014601;28;20446;-48
2022/03/15 08:45:37;;;;;;;1.33;1.33;;;;;;;7.00;100.00;101208.78;5014659;28;20511;-48
2022/03/15 08:48:05;;;;;;;0.30;0.10;;;;;;;6.93;100.00;101217.59;5003635;28;20464;-48
2022/03/15 08:50:32;;;;;;;0.57;0.57;;;;;;;6.93;100.00;101211.41;5014384;28;20822;-48
2022/03/15 08:52:59;;;;;;;1.07;0.63;;;;;;;6.93;100.00;101212.28;5013830;28;20507;-48
2022/03/15 08:55:27;;;;;;;0.30;0.20;;;;;;;6.99;100.00;101206.13;5014263;28;20511;-48
2022/03/15 08:57:55;;;;;;;0.50;0.50;;;;;;;7.21;100.00;101205.25;5014399;28;20472;-48
2022/03/15 09:00:21;;;;;;;0.30;0.20;;;;;;;6.88;100.00;101200.84;5014312;28;20527;-47
2022/03/15 09:02:48;;;;;;;0.30;0.20;;;;;;;6.95;100.00;101197.31;5000943;28;20480;-47
2022/03/15 09:05:18;;;;;;;0.30;0.20;;;;;;;7.01;100.00;101196.47;5013988;28;20453;-48
2022/03/15 09:07:53;;;;;;;0.60;0.60;;;;;;;7.03;100.00;101195.56;5013948;28;20455;-48
2022/03/15 09:10:21;;;;;;;0.30;0.10;;;;;;;7.17;100.00;101184.13;5008797;28;20899;-48
2022/03/15 09:12:49;;;;;;;0.60;0.60;;;;;;;7.19;100.00;101192.94;5014209;28;20456;-48
2022/03/15 09:15:16;;;;;;;0.30;0.20;;;;;;;7.24;100.00;101178.81;5013823;28;20460;-49
2022/03/15 09:17:43;;;;;;;0.90;0.80;;;;;;;7.23;100.00;101192.91;5010364;28;20878;-48
2022/03/15 09:20:25;;;;;;;0.30;0.20;;;;;;;7.28;100.00;101192.94;5013668;28;20523;-48
2022/03/15 09:22:53;;;;;;;0.40;0.30;;;;;;;7.65;100.00;101177.88;5013974;28;20817;-48
2022/03/15 09:25:20;;;;;;;0.30;0.20;;;;;;;7.47;100.00;101181.44;5013838;28;20468;-48
2022/03/15 09:27:47;;;;;;;0.30;0.10;;;;;;;7.57;100.00;101159.38;5013754;28;20452;-48
2022/03/15 09:30:14;;;;;;;0.30;0.20;;;;;;;7.43;100.00;101153.25;5014024;28;20838;-48
2022/03/15 09:32:41;;;;;;;5.57;1.60;;;;;;;7.27;100.00;101152.41;5013799;28;20499;-48
2022/03/15 09:35:09;;;;;;;0.30;0.20;;;;;;;7.38;100.00;101136.47;5013301;28;20488;-48
2022/03/15 09:37:36;;;;;;;0.30;0.30;;;;;;;7.42;100.00;101143.56;5013530;28;20452;-49
2022/03/15 09:40:09;;;;;;;2.40;2.20;;;;;;;7.28;100.00;101132.13;5013296;28;21020;-47
2022/03/15 09:42:36;;;;;;;0.30;0.20;;;;;;;7.20;100.00;101133.88;5013639;28;20511;-48
2022/03/15 09:45:04;;;;;;;1.17;1.13;;;;;;;7.52;100.00;101137.34;5012040;28;20528;-48
2022/03/15 09:47:34;;;;;;;0.30;0.20;;;;;;;7.66;100.00;101134.66;5004423;28;20457;-48
2022/03/15 09:50:06;;;;;;;0.40;0.40;;;;;;;7.55;100.00;101133.81;5012554;28;20472;-48
2022/03/15 09:52:34;;;;;;;0.30;0.10;;;;;;;7.63;100.00;101124.97;5013334;28;20471;-48
2022/03/15 09:55:02;;;;;;;0.30;0.20;;;;;;;7.61;100.00;101144.38;5013131;28;20520;-48
2022/03/15 09:57:31;;;;;;;0.30;0.20;;;;;;;7.27;100.00;101160.31;5012877;28;20449;-48
2022/03/15 10:00:00;;;;;;;0.30;0.10;;;;;;;7.47;100.00;101159.41;5012830;28;20530;-48
2022/03/15 10:02:27;;;;;;;0.30;0.20;;;;;;;7.31;100.00;101158.56;4999584;28;20966;-48
2022/03/15 10:04:56;;;;;;;0.30;0.20;;;;;;;7.29;100.00;101147.97;5012512;28;20453;-48
2022/03/15 10:07:23;;;;;;;0.30;0.20;;;;;;;7.30;100.00;101147.09;4997775;28;20486;-48
2022/03/15 10:09:52;;;;;;;4.23;1.07;;;;;;;7.34;100.00;101135.63;5007149;28;20492;-47
2022/03/15 10:12:19;;;;;;;2.60;2.40;;;;;;;7.31;100.00;101122.41;5012666;28;20945;-47
2022/03/15 10:14:49;;;;;;;0.30;0.20;;;;;;;7.22;100.00;101121.53;5012979;28;20610;-48
2022/03/15 10:17:16;;;;;;;0.63;0.63;;;;;;;7.27;100.00;101112.72;5008899;28;20456;-48
2022/03/15 10:19:54;;;;;;;0.20;0.10;;;;;;;7.19;100.00;101100.41;5011436;28;20992;-48
2022/03/15 10:22:25;;;;;;;0.20;0.10;;;;;;;7.59;100.00;101096.75;5012677;28;20846;-48
2022/03/15 10:24:54;;;;;;;1.27;1.27;;;;;;;7.39;100.00;101104.75;5012613;28;20456;-48
2022/03/15 10:27:21;;;;;;;0.97;0.97;;;;;;;7.30;100.00;101096.84;5012830;28;20824;-48
2022/03/15 10:29:47;;;;;;;1.07;1.07;;;;;;;7.30;100.00;101098.63;5012753;28;20472;-48
2022/03/15 10:32:15;;;;;;;0.30;0.20;;;;;;;7.27;100.00;101107.44;5012733;28;20522;-48
2022/03/15 10:34:46;;;;;;;1.23;0.90;;;;;;;7.33;100.00;101112.69;5012806;28;20542;-48
2022/03/15 10:37:13;;;;;;;1.03;0.93;;;;;;;7.30;100.00;101098.63;5012541;28;20507;-48
2022/03/15 10:39:39;;;;;;;0.30;0.20;;;;;;;7.30;100.00;101095.97;5012242;28;20993;-48
2022/03/15 10:42:07;;;;;;;0.30;0.20;;;;;;;7.27;100.00;101091.56;5012721;28;20888;-48
2022/03/15 10:44:37;;;;;;;0.40;0.40;;;;;;;7.38;100.00;101102.97;5011131;28;20448;-48
2022/03/15 10:47:14;;;;;;;0.30;0.10;;;;;;;7.65;100.00;101082.63;5007426;28;20453;-48
2022/03/15 10:49:47;;;;;;;0.20;0.10;;;;;;;7.47;100.00;101072.13;5008859;28;20471;-48
2022/03/15 10:52:37;;;;;;;0.30;0.27;;;;;;;7.30;100.00;101062.47;5012681;28;20455;-48
2022/03/15 10:55:14;;;;;;;0.30;0.10;;;;;;;7.32;100.00;101054.53;4988202;28;20829;-48
2022/03/15 10:57:48;;;;;;;0.30;0.20;;;;;;;7.45;100.00;101040.38;5012294;28;20522;-48
2022/03/15 11:00:16;;;;;;;0.20;0.10;;;;;;;7.26;100.00;101026.31;5012384;28;20472;-48
2022/03/15 11:02:47;;;;;;;0.30;0.20;;;;;;;7.45;100.00;101021.88;4999226;28;20449;-48
2022/03/15 11:05:31;;;;;;;0.30;0.20;;;;;;;7.43;100.00;101026.28;5012518;28;20440;-48
2022/03/15 11:08:14;;;;;;;0.30;0.30;;;;;;;7.46;100.00;101015.69;5012511;28;20925;-47
2022/03/15 11:10:45;;;;;;;0.27;0.17;;;;;;;7.43;100.00;101002.47;5004046;28;20550;-48
2022/03/15 11:13:12;;;;;;;0.30;0.20;;;;;;;7.39;100.00;101004.25;5012591;28;20865;-48
2022/03/15 11:15:42;;;;;;;0.40;0.40;;;;;;;7.40;100.00;100992.81;5012974;28;20558;-48
2022/03/15 11:18:11;;;;;;;0.30;0.30;;;;;;;7.32;100.00;100984.00;5013188;28;20590;-47
2022/03/15 11:20:41;;;;;;;0.30;0.20;;;;;;;7.51;100.00;100989.22;5015763;28;21000;-48
2022/03/15 11:23:11;;;;;;;0.30;0.20;;;;;;;7.63;100.00;100989.16;5015823;28;20501;-48
2022/03/15 11:25:49;;;;;;;0.20;0.10;;;;;;;7.60;100.00;100975.94;5015818;28;20448;-48
2022/03/15 11:28:23;;;;;;;0.30;0.20;;;;;;;7.69;100.00;100957.38;5015775;28;20439;-48